createdAt,value
2022-09-07T00:00:36.538Z,21.37
2022-09-07T00:03:04.422Z,21.39
2022-09-07T00:05:31.737Z,21.42
2022-09-07T00:07:59.353Z,21.39
2022-09-07T00:10:26.245Z,21.32
2022-09-07T00:12:52.840Z,21.25
2022-09-07T00:15:19.647Z,21.27
2022-09-07T00:17:46.163Z,21.26
2022-09-07T00:20:13.036Z,21.24
2022-09-07T00:22:39.558Z,21.18
2022-09-07T00:25:06.513Z,21.16
2022-09-07T00:27:33.000Z,21.15
2022-09-07T00:29:59.514Z,21.14
2022-09-07T00:32:26.024Z,21.13
2022-09-07T00:34:52.595Z,21.13
2022-09-07T00:37:19.101Z,21.12
2022-09-07T00:39:45.640Z,21.08
2022-09-07T00:42:12.139Z,21.05
2022-09-07T00:44:44.324Z,20.99
2022-09-07T00:47:27.048Z,20.95
2022-09-07T00:49:59.913Z,20.98
2022-09-07T00:52:28.827Z,21.03
2022-09-07T00:54:59.693Z,21.06
2022-09-07T00:57:28.178Z,20.84
2022-09-07T00:59:57.621Z,20.32
2022-09-07T01:02:25.851Z,19.86
2022-09-07T01:05:00.197Z,19.58
2022-09-07T01:07:26.685Z,19.46
2022-09-07T01:09:54.558Z,19.40
2022-09-07T01:12:21.189Z,19.36
2022-09-07T01:14:50.867Z,19.37
2022-09-07T01:17:23.372Z,19.38
2022-09-07T01:19:52.736Z,19.38
2022-09-07T01:22:50.321Z,19.33
2022-09-07T01:25:40.409Z,19.21
2022-09-07T01:28:13.447Z,19.22
2022-09-07T01:30:45.420Z,19.15
2022-09-07T01:33:33.254Z,19.08
2022-09-07T01:36:05.560Z,19.04
2022-09-07T01:38:40.568Z,19.00
2022-09-07T01:41:18.731Z,18.94
2022-09-07T01:44:03.872Z,18.89
2022-09-07T01:46:36.260Z,18.90
2022-09-07T01:49:16.947Z,18.92
2022-09-07T01:51:47.173Z,18.98
2022-09-07T01:54:24.110Z,19.02
2022-09-07T01:56:56.162Z,19.07
2022-09-07T01:59:32.572Z,19.13
2022-09-07T02:02:05.960Z,19.17
2022-09-07T02:04:40.151Z,19.28
2022-09-07T02:07:27.054Z,19.30
2022-09-07T02:10:01.847Z,19.36
2022-09-07T02:12:38.154Z,19.42
2022-09-07T02:15:15.399Z,19.45
2022-09-07T02:17:45.645Z,19.51
2022-09-07T02:20:39.265Z,19.57
2022-09-07T02:23:15.288Z,19.58
2022-09-07T02:25:49.007Z,19.58
2022-09-07T02:28:21.551Z,19.63
2022-09-07T02:30:48.362Z,19.65
2022-09-07T02:33:15.081Z,19.68
2022-09-07T02:35:41.728Z,19.71
2022-09-07T02:38:08.370Z,19.71
2022-09-07T02:40:34.869Z,19.71
2022-09-07T02:43:06.193Z,19.68
2022-09-07T02:46:04.979Z,19.66
2022-09-07T02:48:36.901Z,19.62
2022-09-07T02:51:22.199Z,19.60
2022-09-07T02:54:21.304Z,19.59
2022-09-07T02:57:19.275Z,19.54
2022-09-07T03:00:01.380Z,19.52
2022-09-07T03:02:46.645Z,19.54
2022-09-07T03:05:31.539Z,19.57
2022-09-07T03:08:01.300Z,19.61
2022-09-07T03:10:28.892Z,19.65
2022-09-07T03:12:55.593Z,19.65
2022-09-07T03:15:25.991Z,19.65
2022-09-07T03:17:53.343Z,19.62
2022-09-07T03:20:21.117Z,19.66
2022-09-07T03:22:49.218Z,19.68
2022-09-07T03:25:15.938Z,19.72
2022-09-07T03:27:42.779Z,19.76
2022-09-07T03:30:10.893Z,19.78
2022-09-07T03:32:38.925Z,19.81
2022-09-07T03:35:07.825Z,19.78
2022-09-07T03:37:38.041Z,19.74
2022-09-07T03:40:10.093Z,19.65
2022-09-07T03:42:37.233Z,19.57
2022-09-07T03:45:06.505Z,19.55
2022-09-07T03:47:40.059Z,19.52
2022-09-07T03:50:07.172Z,19.51
2022-09-07T03:52:37.599Z,19.47
2022-09-07T03:55:05.039Z,19.45
2022-09-07T03:57:31.592Z,19.37
2022-09-07T03:59:58.092Z,19.32
2022-09-07T04:02:24.650Z,19.32
2022-09-07T04:04:51.276Z,19.28
2022-09-07T04:07:17.820Z,19.26
2022-09-07T04:09:45.362Z,19.27
2022-09-07T04:12:11.868Z,19.28
2022-09-07T04:14:44.829Z,19.29
2022-09-07T04:17:11.398Z,19.28
2022-09-07T04:19:37.913Z,19.26
2022-09-07T04:22:04.516Z,19.24
2022-09-07T04:24:31.054Z,19.21
2022-09-07T04:26:57.593Z,19.16
2022-09-07T04:29:24.082Z,19.11
2022-09-07T04:31:50.714Z,19.08
2022-09-07T04:34:17.513Z,19.07
2022-09-07T04:36:44.014Z,19.07
2022-09-07T04:39:11.329Z,19.07
2022-09-07T04:41:37.931Z,19.07
2022-09-07T04:44:04.718Z,19.06
2022-09-07T04:46:34.640Z,19.00
2022-09-07T04:49:04.864Z,18.97
2022-09-07T04:51:32.606Z,18.94
2022-09-07T04:54:01.556Z,18.94
2022-09-07T04:56:28.733Z,18.92
2022-09-07T04:58:55.449Z,18.90
2022-09-07T05:01:24.983Z,18.91
2022-09-07T05:03:52.094Z,18.91
2022-09-07T05:06:20.751Z,18.93
2022-09-07T05:08:50.149Z,18.95
2022-09-07T05:11:17.653Z,18.98
2022-09-07T05:13:44.384Z,19.01
2022-09-07T05:16:17.333Z,19.03
2022-09-07T05:18:44.692Z,19.04
2022-09-07T05:21:14.728Z,19.08
2022-09-07T05:23:41.760Z,19.13
2022-09-07T05:26:09.174Z,19.16
2022-09-07T05:28:36.851Z,19.18
2022-09-07T05:31:18.060Z,19.23
2022-09-07T05:36:37.800Z,19.26
2022-09-07T05:39:05.519Z,19.28
2022-09-07T05:41:32.213Z,19.30
2022-09-07T05:46:45.340Z,19.38
2022-09-07T05:49:11.898Z,19.40
2022-09-07T05:51:38.861Z,19.47
2022-09-07T05:54:05.549Z,19.55
2022-09-07T05:56:35.845Z,19.67
2022-09-07T05:59:02.493Z,19.77
2022-09-07T06:01:29.066Z,19.91
2022-09-07T06:03:55.597Z,20.06
2022-09-07T06:06:22.144Z,20.17
2022-09-07T06:08:51.058Z,20.27
2022-09-07T06:11:21.398Z,20.37
2022-09-07T06:13:48.354Z,20.39
2022-09-07T06:16:16.491Z,20.39
2022-09-07T06:18:45.945Z,20.41
2022-09-07T06:21:15.240Z,20.39
2022-09-07T06:23:43.502Z,20.38
2022-09-07T06:26:11.762Z,20.43
2022-09-07T06:28:43.791Z,20.48
2022-09-07T06:31:13.631Z,20.54
2022-09-07T06:33:44.781Z,20.57
2022-09-07T06:36:16.991Z,20.67
2022-09-07T06:38:44.017Z,20.77
2022-09-07T06:44:05.705Z,20.93
2022-09-07T06:49:18.807Z,20.93
2022-09-07T06:51:45.351Z,21.00
2022-09-07T06:56:58.341Z,21.11
2022-09-07T06:59:24.942Z,21.14
2022-09-07T07:01:51.767Z,21.18
2022-09-07T07:04:18.273Z,21.22
2022-09-07T07:06:44.816Z,21.22
2022-09-07T07:09:12.860Z,21.25
2022-09-07T07:11:39.499Z,21.35
2022-09-07T07:14:06.092Z,21.46
2022-09-07T07:16:32.852Z,21.53
2022-09-07T07:18:59.471Z,21.61
2022-09-07T07:21:26.045Z,21.71
2022-09-07T07:23:53.843Z,21.80
2022-09-07T07:26:22.924Z,21.91
2022-09-07T07:29:06.546Z,22.05
2022-09-07T07:31:33.686Z,22.07
2022-09-07T07:34:00.511Z,22.13
2022-09-07T07:36:28.145Z,22.24
2022-09-07T07:44:18.591Z,22.64
2022-09-07T07:46:48.937Z,22.76
2022-09-07T07:49:15.982Z,22.87
2022-09-07T07:54:29.253Z,23.09
2022-09-07T07:56:55.722Z,23.13
2022-09-07T07:59:22.160Z,23.18
2022-09-07T08:01:48.748Z,23.14
2022-09-07T08:04:15.488Z,23.04
2022-09-07T08:06:42.963Z,23.08
2022-09-07T08:09:09.716Z,23.18
2022-09-07T08:11:36.171Z,23.18
2022-09-07T08:14:05.909Z,23.17
2022-09-07T08:16:33.013Z,23.16
2022-09-07T08:18:59.681Z,23.18
2022-09-07T08:21:26.296Z,23.15
2022-09-07T08:23:52.792Z,23.17
2022-09-07T08:26:19.286Z,23.26
2022-09-07T08:28:46.273Z,23.33
2022-09-07T08:31:14.883Z,23.39
2022-09-07T08:33:41.989Z,23.47
2022-09-07T08:36:12.486Z,23.59
2022-09-07T08:38:39.899Z,23.70
2022-09-07T08:41:28.165Z,23.80
2022-09-07T08:44:11.797Z,23.78
2022-09-07T08:46:45.717Z,23.83
2022-09-07T08:49:17.409Z,23.82
2022-09-07T08:52:10.049Z,23.81
2022-09-07T08:54:37.813Z,23.87
2022-09-07T09:00:14.101Z,24.14
2022-09-07T09:02:44.233Z,24.27
2022-09-07T09:05:21.967Z,24.44
2022-09-07T09:08:07.495Z,24.66
2022-09-07T09:10:55.467Z,24.81
2022-09-07T09:13:40.049Z,24.89
2022-09-07T09:16:32.962Z,25.02
2022-09-07T09:19:30.413Z,25.18
2022-09-07T09:22:09.779Z,25.40
2022-09-07T09:24:41.206Z,25.58
2022-09-07T09:27:19.241Z,25.61
2022-09-07T09:29:45.798Z,25.63
2022-09-07T09:32:31.522Z,25.62
2022-09-07T09:35:04.850Z,25.62
2022-09-07T09:37:39.100Z,25.59
2022-09-07T09:40:08.155Z,25.61
2022-09-07T09:42:36.300Z,25.61
2022-09-07T09:45:12.332Z,25.56
2022-09-07T09:47:39.318Z,25.43
2022-09-07T09:52:29.314Z,25.43
2022-09-07T09:53:05.395Z,25.25
2022-09-07T09:55:36.235Z,25.24
2022-09-07T10:01:23.212Z,25.11
2022-09-07T10:06:20.292Z,25.09
2022-09-07T10:08:58.602Z,25.15
2022-09-07T10:14:46.676Z,25.38
2022-09-07T10:17:28.416Z,25.50
2022-09-07T10:20:20.514Z,25.60
2022-09-07T10:22:53.007Z,25.57
2022-09-07T10:25:36.213Z,25.59
2022-09-07T10:28:14.073Z,25.60
2022-09-07T10:30:54.989Z,25.57
2022-09-07T10:33:28.651Z,25.64
2022-09-07T10:36:10.689Z,25.70
2022-09-07T10:39:03.188Z,25.84
2022-09-07T10:41:52.582Z,26.07
2022-09-07T10:44:46.421Z,26.19
2022-09-07T10:47:24.592Z,26.21
2022-09-07T10:50:24.466Z,26.13
2022-09-07T10:53:40.018Z,25.90
2022-09-07T10:56:10.983Z,25.73
2022-09-07T10:59:08.378Z,25.64
2022-09-07T11:02:16.579Z,25.58
2022-09-07T11:05:17.297Z,25.50
2022-09-07T11:08:05.647Z,25.55
2022-09-07T11:11:11.357Z,25.48
2022-09-07T11:14:09.044Z,25.50
2022-09-07T11:19:35.423Z,25.60
2022-09-07T11:22:29.826Z,25.74
2022-09-07T11:25:31.084Z,25.81
2022-09-07T11:28:17.641Z,25.89
2022-09-07T11:31:08.261Z,25.94
2022-09-07T11:37:11.572Z,26.03
2022-09-07T11:39:52.542Z,26.15
2022-09-07T11:42:46.274Z,26.31
2022-09-07T11:45:18.269Z,26.50
2022-09-07T11:48:03.056Z,26.61
2022-09-07T11:50:35.331Z,26.78
2022-09-07T11:53:19.800Z,26.85
2022-09-07T11:55:50.316Z,26.98
2022-09-07T11:58:50.646Z,27.08
2022-09-07T12:01:39.601Z,27.01
2022-09-07T12:04:29.290Z,27.02
2022-09-07T12:07:11.173Z,27.08
2022-09-07T12:09:59.530Z,27.23
2022-09-07T12:12:44.146Z,27.47
2022-09-07T12:15:29.359Z,27.66
2022-09-07T12:18:01.905Z,27.78
2022-09-07T12:20:40.925Z,27.86
2022-09-07T12:23:16.645Z,28.01
2022-09-07T12:25:45.501Z,28.09
2022-09-07T12:28:37.944Z,28.11
2022-09-07T12:31:06.689Z,28.14
2022-09-07T12:33:38.641Z,28.11
2022-09-07T12:36:28.222Z,28.16
2022-09-07T12:39:25.006Z,28.20
2022-09-07T12:42:37.465Z,28.03
2022-09-07T12:45:28.732Z,27.90
2022-09-07T12:48:04.559Z,27.78
2022-09-07T12:50:40.495Z,27.67
2022-09-07T12:53:29.905Z,27.64
2022-09-07T12:56:16.911Z,27.71
2022-09-07T12:59:17.367Z,27.79
2022-09-07T13:02:10.816Z,27.78
2022-09-07T13:04:55.523Z,27.77
2022-09-07T13:07:24.971Z,27.78
2022-09-07T13:09:59.688Z,27.87
2022-09-07T13:12:55.254Z,27.99
2022-09-07T13:15:45.320Z,28.20
2022-09-07T13:18:34.410Z,28.37
2022-09-07T13:21:06.695Z,28.69
2022-09-07T13:23:34.886Z,28.88
2022-09-07T13:26:03.453Z,29.00
2022-09-07T13:28:55.785Z,28.99
2022-09-07T13:31:58.941Z,28.89
2022-09-07T13:34:34.837Z,28.68
2022-09-07T13:37:03.180Z,28.56
2022-09-07T13:39:43.573Z,28.51
2022-09-07T13:42:17.865Z,28.51
2022-09-07T13:44:53.111Z,28.44
2022-09-07T13:47:33.789Z,28.37
2022-09-07T13:50:09.870Z,28.29
2022-09-07T13:53:05.645Z,28.19
2022-09-07T13:55:57.268Z,28.03
2022-09-07T13:58:33.093Z,27.85
2022-09-07T14:01:06.200Z,27.66
2022-09-07T14:03:47.923Z,27.40
2022-09-07T14:06:21.580Z,27.10
2022-09-07T14:09:03.002Z,26.85
2022-09-07T14:11:39.610Z,26.68
2022-09-07T14:14:26.829Z,26.59
2022-09-07T14:17:00.683Z,26.59
2022-09-07T14:19:40.784Z,26.59
2022-09-07T14:22:16.605Z,26.62
2022-09-07T14:24:50.824Z,26.63
2022-09-07T14:27:31.940Z,26.72
2022-09-07T14:30:29.049Z,26.80
2022-09-07T14:33:00.658Z,26.82
2022-09-07T14:35:31.650Z,26.85
2022-09-07T14:38:05.856Z,26.91
2022-09-07T14:40:33.432Z,27.02
2022-09-07T14:42:59.921Z,27.15
2022-09-07T14:45:29.409Z,27.33
2022-09-07T14:47:56.752Z,27.57
2022-09-07T14:50:32.480Z,27.76
2022-09-07T14:56:00.803Z,27.92
2022-09-07T14:58:32.149Z,27.86
2022-09-07T15:04:01.730Z,27.73
2022-09-07T15:09:37.866Z,27.64
2022-09-07T15:12:27.248Z,27.54
2022-09-07T15:15:10.449Z,27.40
2022-09-07T15:17:44.850Z,27.21
2022-09-07T15:20:31.832Z,26.98
2022-09-07T15:22:59.113Z,26.82
2022-09-07T15:25:25.624Z,26.75
2022-09-07T15:27:54.310Z,26.68
2022-09-07T15:30:20.875Z,26.70
2022-09-07T15:32:47.432Z,26.72
2022-09-07T15:35:14.052Z,26.69
2022-09-07T15:40:38.399Z,26.48
2022-09-07T15:43:19.678Z,26.33
2022-09-07T15:45:48.250Z,26.16
2022-09-07T15:48:17.865Z,26.03
2022-09-07T15:50:44.536Z,25.90
2022-09-07T15:54:07.378Z,25.75
2022-09-07T15:55:57.551Z,25.65
2022-09-07T15:58:24.148Z,25.57
2022-09-07T16:01:51.404Z,25.55
2022-09-07T16:03:38.212Z,25.54
2022-09-07T16:06:13.930Z,25.47
2022-09-07T16:08:41.195Z,25.40
2022-09-07T16:11:23.967Z,25.31
2022-09-07T16:14:01.738Z,25.28
2022-09-07T16:19:20.553Z,25.18
2022-09-07T16:21:47.485Z,25.12
2022-09-07T16:24:14.088Z,25.05
2022-09-07T16:26:40.654Z,24.93
2022-09-07T16:29:07.766Z,24.79
2022-09-07T16:31:34.793Z,24.71
2022-09-07T16:34:03.281Z,24.60
2022-09-07T16:36:30.672Z,24.53
2022-09-07T16:38:59.699Z,24.49
2022-09-07T16:41:29.292Z,24.43
2022-09-07T16:43:56.374Z,24.37
2022-09-07T16:46:25.511Z,24.31
2022-09-07T16:48:52.204Z,24.27
2022-09-07T16:51:21.328Z,24.25
2022-09-07T16:53:50.124Z,24.24
2022-09-07T16:56:19.401Z,24.23
2022-09-07T16:58:48.780Z,24.25
2022-09-07T17:01:18.592Z,24.24
2022-09-07T17:03:45.733Z,24.23
2022-09-07T17:06:14.241Z,24.25
2022-09-07T17:08:41.758Z,24.25
2022-09-07T17:11:19.593Z,24.22
2022-09-07T17:13:47.603Z,24.18
2022-09-07T17:16:23.299Z,24.13
2022-09-07T17:21:39.525Z,24.05
2022-09-07T17:24:08.301Z,24.00
2022-09-07T17:26:34.799Z,23.95
2022-09-07T17:29:01.576Z,23.92
2022-09-07T17:34:18.346Z,23.88
2022-09-07T17:36:44.984Z,23.81
2022-09-07T17:39:16.756Z,23.77
2022-09-07T17:41:44.460Z,23.70
2022-09-07T17:44:11.002Z,23.65
2022-09-07T17:46:37.625Z,23.61
2022-09-07T17:49:04.257Z,23.55
2022-09-07T17:51:32.465Z,23.49
2022-09-07T17:54:09.593Z,23.41
2022-09-07T17:56:37.473Z,23.34
2022-09-07T18:01:50.723Z,23.21
2022-09-07T18:04:17.431Z,23.13
2022-09-07T18:06:43.954Z,23.05
2022-09-07T18:09:11.575Z,22.97
2022-09-07T18:11:46.767Z,22.91
2022-09-07T18:14:14.935Z,22.89
2022-09-07T18:16:45.788Z,22.84
2022-09-07T18:19:13.248Z,22.75
2022-09-07T18:21:42.155Z,22.67
2022-09-07T18:24:16.738Z,22.59
2022-09-07T18:26:44.744Z,22.54
2022-09-07T18:29:28.107Z,22.49
2022-09-07T18:31:55.863Z,22.41
2022-09-07T18:34:22.540Z,22.36
2022-09-07T18:36:49.097Z,22.34
2022-09-07T18:39:15.856Z,22.33
2022-09-07T18:41:42.390Z,22.35
2022-09-07T18:46:55.868Z,22.24
2022-09-07T18:49:22.399Z,22.20
2022-09-07T18:54:35.655Z,22.09
2022-09-07T18:57:06.727Z,22.03
2022-09-07T18:59:33.813Z,22.03
2022-09-07T19:02:04.291Z,22.04
2022-09-07T19:07:20.582Z,21.95
2022-09-07T19:09:48.166Z,21.88
2022-09-07T19:12:15.192Z,21.83
2022-09-07T19:14:42.234Z,21.77
2022-09-07T19:17:10.976Z,21.75
2022-09-07T19:19:38.864Z,21.70
2022-09-07T19:22:06.033Z,21.69
2022-09-07T19:24:33.208Z,21.69
2022-09-07T19:27:00.871Z,21.68
2022-09-07T19:29:28.326Z,21.68
2022-09-07T19:32:07.782Z,21.68
2022-09-07T19:34:36.565Z,21.66
2022-09-07T19:37:04.808Z,21.64
2022-09-07T19:39:31.653Z,21.59
2022-09-07T19:41:58.519Z,21.52
2022-09-07T19:44:25.468Z,21.45
2022-09-07T19:46:52.168Z,21.37
2022-09-07T19:49:18.946Z,21.31
2022-09-07T19:51:45.965Z,21.21
2022-09-07T19:54:13.583Z,21.14
2022-09-07T19:56:42.643Z,21.07
2022-09-07T19:59:09.451Z,21.03
2022-09-07T20:01:36.404Z,20.99
2022-09-07T20:04:06.320Z,20.96
2022-09-07T20:06:34.433Z,20.95
2022-09-07T20:09:01.355Z,20.92
2022-09-07T20:11:28.723Z,20.91
2022-09-07T20:13:57.146Z,20.88
2022-09-07T20:16:24.823Z,20.81
2022-09-07T20:18:51.752Z,20.73
2022-09-07T20:21:21.083Z,20.64
2022-09-07T20:23:47.922Z,20.61
2022-09-07T20:26:17.686Z,20.61
2022-09-07T20:28:44.328Z,20.60
2022-09-07T20:31:13.751Z,20.60
2022-09-07T20:33:42.091Z,20.61
2022-09-07T20:36:11.036Z,20.62
2022-09-07T20:38:45.130Z,20.61
2022-09-07T20:41:19.682Z,20.63
2022-09-07T20:43:52.625Z,20.65
2022-09-07T20:46:19.206Z,20.68
2022-09-07T20:48:45.995Z,20.70
2022-09-07T20:51:19.009Z,20.72
2022-09-07T20:53:48.985Z,20.70
2022-09-07T20:56:18.249Z,20.64
2022-09-07T20:58:46.438Z,20.56
2022-09-07T21:01:18.150Z,20.49
2022-09-07T21:03:49.741Z,20.48
2022-09-07T21:06:17.229Z,20.42
2022-09-07T21:08:45.351Z,20.36
2022-09-07T21:11:17.682Z,20.28
2022-09-07T21:13:44.512Z,20.24
2022-09-07T21:16:13.154Z,20.22
2022-09-07T21:18:40.580Z,20.26
2022-09-07T21:21:23.167Z,20.28
2022-09-07T21:23:59.170Z,20.31
2022-09-07T21:26:29.750Z,20.32
2022-09-07T21:28:57.348Z,20.31
2022-09-07T21:31:24.497Z,20.30
2022-09-07T21:33:56.205Z,20.32
2022-09-07T21:36:23.273Z,20.34
2022-09-07T21:38:50.316Z,20.33
2022-09-07T21:41:18.291Z,20.29
2022-09-07T21:43:45.012Z,20.29
2022-09-07T21:46:17.385Z,20.31
2022-09-07T21:48:45.438Z,20.31
2022-09-07T21:51:13.681Z,20.31
2022-09-07T21:53:40.615Z,20.30
2022-09-07T21:56:14.013Z,20.29
2022-09-07T21:58:40.925Z,20.25
2022-09-07T22:01:17.154Z,20.23
2022-09-07T22:03:48.042Z,20.20
2022-09-07T22:06:15.142Z,20.17
2022-09-07T22:08:42.375Z,20.14
2022-09-07T22:11:20.483Z,20.11
2022-09-07T22:13:47.468Z,20.07
2022-09-07T22:16:15.207Z,20.03
2022-09-07T22:18:45.715Z,20.00
2022-09-07T22:21:18.030Z,19.96
2022-09-07T22:23:46.960Z,19.93
2022-09-07T22:26:14.645Z,19.93
2022-09-07T22:28:41.549Z,19.93
2022-09-07T22:31:17.600Z,19.93
2022-09-07T22:33:45.336Z,19.92
2022-09-07T22:36:15.227Z,19.92
2022-09-07T22:38:43.381Z,19.94
2022-09-07T22:41:18.498Z,19.95
2022-09-07T22:43:46.085Z,19.92
2022-09-07T22:46:13.708Z,19.90
2022-09-07T22:48:41.258Z,19.85
2022-09-07T22:51:08.975Z,19.79
2022-09-07T22:53:37.595Z,19.77
2022-09-07T22:56:10.891Z,19.75
2022-09-07T22:58:37.891Z,19.75
2022-09-07T23:01:06.239Z,19.79
2022-09-07T23:03:34.823Z,19.83
2022-09-07T23:06:01.837Z,19.85
2022-09-07T23:08:29.048Z,19.87
2022-09-07T23:10:55.828Z,19.90
2022-09-07T23:13:22.310Z,19.93
2022-09-07T23:15:48.962Z,19.98
2022-09-07T23:18:17.459Z,20.02
2022-09-07T23:20:44.374Z,20.07
2022-09-07T23:23:11.140Z,20.12
2022-09-07T23:25:38.849Z,20.17
2022-09-07T23:28:07.199Z,20.16
2022-09-07T23:30:35.693Z,20.16
2022-09-07T23:33:03.518Z,20.17
2022-09-07T23:35:30.256Z,20.17
2022-09-07T23:37:57.073Z,20.20
2022-09-07T23:40:23.936Z,20.20
2022-09-07T23:42:50.518Z,20.19
2022-09-07T23:45:17.101Z,20.18
2022-09-07T23:47:43.917Z,20.21
2022-09-07T23:50:10.905Z,20.26
2022-09-07T23:52:37.960Z,20.31
2022-09-07T23:55:04.842Z,20.32
2022-09-07T23:57:32.041Z,20.30
2022-09-07T23:59:58.877Z,20.29
